sensor_id;sensor_type;location;lat;lon;timestamp;pressure;altitude;pressure_sealevel;temperature;humidity
3524;BME280;1776;53.330;11.498;2023-05-23T00:00:12;26092.53;;;-147.39;59.73
3524;BME280;1776;53.330;11.498;2023-05-23T00:02:38;26200.34;;;-147.39;60.77
3524;BME280;1776;53.330;11.498;2023-05-23T00:05:04;26019.28;;;-147.39;61.07
3524;BME280;1776;53.330;11.498;2023-05-23T00:07:31;26033.53;;;-147.39;60.99
3524;BME280;1776;53.330;11.498;2023-05-23T00:09:56;25996.91;;;-147.39;60.91
3524;BME280;1776;53.330;11.498;2023-05-23T00:12:22;26000.97;;;-147.39;60.91
3524;BME280;1776;53.330;11.498;2023-05-23T00:14:47;26005.03;;;-147.39;60.87
3524;BME280;1776;53.330;11.498;2023-05-23T00:17:12;25895.19;;;-147.39;61.57
3524;BME280;1776;53.330;11.498;2023-05-23T00:19:38;25856.53;;;-147.39;62.15
3524;BME280;1776;53.330;11.498;2023-05-23T00:22:03;25813.81;;;-147.39;62.69
3524;BME280;1776;53.330;11.498;2023-05-23T00:24:28;25588.03;;;-147.39;62.10
3524;BME280;1776;53.330;11.498;2023-05-23T00:26:54;25767.03;;;-147.39;61.80
3524;BME280;1776;53.330;11.498;2023-05-23T00:29:19;25758.91;;;-147.39;62.16
3524;BME280;1776;53.330;11.498;2023-05-23T00:31:45;25681.63;;;-147.39;62.67
3524;BME280;1776;53.330;11.498;2023-05-23T00:34:14;25685.69;;;-147.39;62.16
3524;BME280;1776;53.330;11.498;2023-05-23T00:36:41;25856.53;;;-147.39;62.55
3524;BME280;1776;53.330;11.498;2023-05-23T00:39:07;25826.03;;;-147.39;61.85
3524;BME280;1776;53.330;11.498;2023-05-23T00:41:33;25706.03;;;-147.39;61.62
3524;BME280;1776;53.330;11.498;2023-05-23T00:43:58;25697.88;;;-147.39;62.42
3524;BME280;1776;53.330;11.498;2023-05-23T00:46:25;25736.53;;;-147.39;63.03
3524;BME280;1776;53.330;11.498;2023-05-23T00:48:50;25659.25;;;-147.39;63.40
3524;BME280;1776;53.330;11.498;2023-05-23T00:51:16;25571.78;;;-147.39;63.69
3524;BME280;1776;53.330;11.498;2023-05-23T00:53:42;25586.00;;;-147.39;63.09
3524;BME280;1776;53.330;11.498;2023-05-23T00:56:07;25592.13;;;-147.39;63.50
3524;BME280;1776;53.330;11.498;2023-05-23T00:58:33;25569.75;;;-147.39;63.33
3524;BME280;1776;53.330;11.498;2023-05-23T01:00:58;25541.25;;;-147.39;63.48
3524;BME280;1776;53.330;11.498;2023-05-23T01:03:24;25527.03;;;-147.39;63.40
3524;BME280;1776;53.330;11.498;2023-05-23T01:05:52;25533.13;;;-147.39;63.42
3524;BME280;1776;53.330;11.498;2023-05-23T01:08:18;25520.91;;;-147.39;63.37
3524;BME280;1776;53.330;11.498;2023-05-23T01:10:43;25561.59;;;-147.39;63.47
3524;BME280;1776;53.330;11.498;2023-05-23T01:13:32;25492.44;;;-147.39;63.77
3524;BME280;1776;53.330;11.498;2023-05-23T01:16:06;25496.50;;;-147.39;63.75
3524;BME280;1776;53.330;11.498;2023-05-23T01:18:37;25463.97;;;-147.39;63.80
3524;BME280;1776;53.330;11.498;2023-05-23T01:21:10;25404.97;;;-147.39;63.71
3524;BME280;1776;53.330;11.498;2023-05-23T01:29:11;25431.44;;;-147.39;64.14
3524;BME280;1776;53.330;11.498;2023-05-23T01:31:42;25433.47;;;-147.39;64.06
3524;BME280;1776;53.330;11.498;2023-05-23T01:34:09;25480.25;;;-147.39;64.13
3524;BME280;1776;53.330;11.498;2023-05-23T01:36:39;25407.03;;;-147.39;64.07
3524;BME280;1776;53.330;11.498;2023-05-23T01:39:06;25409.06;;;-147.39;63.97
3524;BME280;1776;53.330;11.498;2023-05-23T01:41:32;25415.16;;;-147.39;64.12
3524;BME280;1776;53.330;11.498;2023-05-23T01:43:57;25561.59;;;-147.39;64.35
3524;BME280;1776;53.330;11.498;2023-05-23T01:46:22;25407.03;;;-147.39;64.37
3524;BME280;1776;53.330;11.498;2023-05-23T01:48:49;25404.97;;;-147.39;64.11
3524;BME280;1776;53.330;11.498;2023-05-23T01:51:15;25394.81;;;-147.39;64.40
3524;BME280;1776;53.330;11.498;2023-05-23T01:53:40;25435.50;;;-147.39;64.28
3524;BME280;1776;53.330;11.498;2023-05-23T01:56:07;25423.28;;;-147.39;63.77
3524;BME280;1776;53.330;11.498;2023-05-23T01:58:32;25413.13;;;-147.39;63.95
3524;BME280;1776;53.330;11.498;2023-05-23T02:00:58;25419.22;;;-147.39;63.77
3524;BME280;1776;53.330;11.498;2023-05-23T02:03:23;25409.06;;;-147.39;63.77
3524;BME280;1776;53.330;11.498;2023-05-23T02:05:49;25409.06;;;-147.39;63.41
3524;BME280;1776;53.330;11.498;2023-05-23T02:08:15;24973.81;;;-147.39;63.68
3524;BME280;1776;53.330;11.498;2023-05-23T02:10:40;25409.06;;;-147.39;63.96
3524;BME280;1776;53.330;11.498;2023-05-23T02:13:05;25484.31;;;-147.39;64.20
3524;BME280;1776;53.330;11.498;2023-05-23T02:15:30;25413.13;;;-147.39;63.67
3524;BME280;1776;53.330;11.498;2023-05-23T02:17:56;25421.25;;;-147.39;64.02
3524;BME280;1776;53.330;11.498;2023-05-23T02:20:21;25541.25;;;-147.39;64.24
3524;BME280;1776;53.330;11.498;2023-05-23T02:22:46;25409.06;;;-147.39;64.29
3524;BME280;1776;53.330;11.498;2023-05-23T02:25:11;25394.81;;;-147.39;63.92
3524;BME280;1776;53.330;11.498;2023-05-23T02:27:37;25427.34;;;-147.39;63.74
3524;BME280;1776;53.330;11.498;2023-05-23T02:30:02;25506.69;;;-147.39;63.93
3524;BME280;1776;53.330;11.498;2023-05-23T02:32:28;25443.63;;;-147.39;64.20
3524;BME280;1776;53.330;11.498;2023-05-23T02:34:54;25394.81;;;-147.39;64.18
3524;BME280;1776;53.330;11.498;2023-05-23T02:37:19;25435.50;;;-147.39;63.94
3524;BME280;1776;53.330;11.498;2023-05-23T02:39:45;25498.53;;;-147.39;64.00
3524;BME280;1776;53.330;11.498;2023-05-23T02:42:10;25384.66;;;-147.39;64.10
3524;BME280;1776;53.330;11.498;2023-05-23T02:44:35;25417.19;;;-147.39;64.26
3524;BME280;1776;53.330;11.498;2023-05-23T02:47:01;25392.78;;;-147.39;64.82
3524;BME280;1776;53.330;11.498;2023-05-23T02:49:26;25331.75;;;-147.39;64.62
3524;BME280;1776;53.330;11.498;2023-05-23T02:51:51;25246.34;;;-147.39;64.84
3524;BME280;1776;53.330;11.498;2023-05-23T02:54:16;25398.88;;;-147.39;64.77
3524;BME280;1776;53.330;11.498;2023-05-23T02:56:43;25331.75;;;-147.39;64.58
3524;BME280;1776;53.330;11.498;2023-05-23T02:59:09;25409.06;;;-147.39;63.94
3524;BME280;1776;53.330;11.498;2023-05-23T03:01:36;25364.31;;;-147.39;64.24
3524;BME280;1776;53.330;11.498;2023-05-23T03:04:01;25384.66;;;-147.39;63.43
3524;BME280;1776;53.330;11.498;2023-05-23T03:06:26;25415.16;;;-147.39;63.84
3524;BME280;1776;53.330;11.498;2023-05-23T03:08:52;25386.69;;;-147.39;63.42
3524;BME280;1776;53.330;11.498;2023-05-23T03:11:17;25407.03;;;-147.39;62.74
3524;BME280;1776;53.330;11.498;2023-05-23T03:13:42;25476.16;;;-147.39;62.96
3524;BME280;1776;53.330;11.498;2023-05-23T03:16:07;25439.56;;;-147.39;63.18
3524;BME280;1776;53.330;11.498;2023-05-23T03:18:33;25398.88;;;-147.39;63.67
3524;BME280;1776;53.330;11.498;2023-05-23T03:20:58;25382.59;;;-147.39;63.81
3524;BME280;1776;53.330;11.498;2023-05-23T03:23:23;25364.31;;;-147.39;64.33
3524;BME280;1776;53.330;11.498;2023-05-23T03:25:48;25364.31;;;-147.39;64.76
3524;BME280;1776;53.330;11.498;2023-05-23T03:28:14;25317.53;;;-147.39;65.08
3524;BME280;1776;53.330;11.498;2023-05-23T03:30:39;25337.88;;;-147.39;66.06
3524;BME280;1776;53.330;11.498;2023-05-23T03:33:05;25260.56;;;-147.39;67.03
3524;BME280;1776;53.330;11.498;2023-05-23T03:35:31;25244.31;;;-147.39;67.36
3524;BME280;1776;53.330;11.498;2023-05-23T03:37:57;25244.31;;;-147.39;67.63
3524;BME280;1776;53.330;11.498;2023-05-23T03:40:22;25223.97;;;-147.39;68.56
3524;BME280;1776;53.330;11.498;2023-05-23T03:43:00;24986.00;;;-147.39;68.93
3524;BME280;1776;53.330;11.498;2023-05-23T03:45:27;25140.59;;;-147.39;69.25
3524;BME280;1776;53.330;11.498;2023-05-23T03:47:52;25085.66;;;-147.39;68.55
3524;BME280;1776;53.330;11.498;2023-05-23T03:50:17;25116.19;;;-147.39;68.18
3524;BME280;1776;53.330;11.498;2023-05-23T03:52:42;25173.13;;;-147.39;68.15
3524;BME280;1776;53.330;11.498;2023-05-23T03:55:08;24741.97;;;-147.39;68.30
3524;BME280;1776;53.330;11.498;2023-05-23T03:57:35;25042.97;;;-147.39;69.63
3524;BME280;1776;53.330;11.498;2023-05-23T04:00:02;25075.50;;;-147.39;69.40
3524;BME280;1776;53.330;11.498;2023-05-23T04:02:30;25012.44;;;-147.39;69.16
3524;BME280;1776;53.330;11.498;2023-05-23T04:04:55;24847.72;;;-147.39;68.76
3524;BME280;1776;53.330;11.498;2023-05-23T04:07:21;25020.59;;;-147.39;68.63
3524;BME280;1776;53.330;11.498;2023-05-23T04:09:47;25036.84;;;-147.39;68.20
3524;BME280;1776;53.330;11.498;2023-05-23T04:12:12;25042.97;;;-147.39;68.32
3524;BME280;1776;53.330;11.498;2023-05-23T04:14:37;25016.53;;;-147.39;68.64
3524;BME280;1776;53.330;11.498;2023-05-23T04:17:03;25069.41;;;-147.39;67.94
3524;BME280;1776;53.330;11.498;2023-05-23T04:19:29;25085.66;;;-147.39;67.12
3524;BME280;1776;53.330;11.498;2023-05-23T04:21:55;25040.94;;;-147.39;67.38
3524;BME280;1776;53.330;11.498;2023-05-23T04:24:20;25077.53;;;-147.39;67.70
3524;BME280;1776;53.330;11.498;2023-05-23T04:26:45;25073.47;;;-147.39;67.48
3524;BME280;1776;53.330;11.498;2023-05-23T04:29:11;25079.56;;;-147.39;67.64
3524;BME280;1776;53.330;11.498;2023-05-23T04:31:36;25055.16;;;-147.39;67.59
3524;BME280;1776;53.330;11.498;2023-05-23T04:34:02;25051.09;;;-147.39;67.62
3524;BME280;1776;53.330;11.498;2023-05-23T04:36:27;25047.03;;;-147.39;67.56
3524;BME280;1776;53.330;11.498;2023-05-23T04:38:54;25057.19;;;-147.39;68.04
3524;BME280;1776;53.330;11.498;2023-05-23T04:41:19;25173.13;;;-147.39;68.41
3524;BME280;1776;53.330;11.498;2023-05-23T04:43:47;25071.44;;;-147.39;67.72
3524;BME280;1776;53.330;11.498;2023-05-23T04:46:12;25150.75;;;-147.39;67.86
3524;BME280;1776;53.330;11.498;2023-05-23T04:48:38;25036.84;;;-147.39;67.78
3524;BME280;1776;53.330;11.498;2023-05-23T04:51:03;25079.56;;;-147.39;67.77
3524;BME280;1776;53.330;11.498;2023-05-23T04:53:33;25075.50;;;-147.39;67.35
3524;BME280;1776;53.330;11.498;2023-05-23T04:55:59;25002.28;;;-147.39;66.79
3524;BME280;1776;53.330;11.498;2023-05-23T04:58:24;25110.06;;;-147.39;66.83
3524;BME280;1776;53.330;11.498;2023-05-23T05:00:49;25091.78;;;-147.39;67.14
3524;BME280;1776;53.330;11.498;2023-05-23T05:03:14;25083.63;;;-147.39;67.55
3524;BME280;1776;53.330;11.498;2023-05-23T05:05:40;25071.44;;;-147.39;68.20
3524;BME280;1776;53.330;11.498;2023-05-23T05:08:05;25022.63;;;-147.39;68.45
3524;BME280;1776;53.330;11.498;2023-05-23T05:10:31;25051.09;;;-147.39;68.68
3524;BME280;1776;53.330;11.498;2023-05-23T05:12:57;25032.78;;;-147.39;69.04
3524;BME280;1776;53.330;11.498;2023-05-23T05:15:22;25004.31;;;-147.39;68.89
3524;BME280;1776;53.330;11.498;2023-05-23T05:17:47;25122.28;;;-147.39;68.85
3524;BME280;1776;53.330;11.498;2023-05-23T05:20:13;25055.16;;;-147.39;68.51
3524;BME280;1776;53.330;11.498;2023-05-23T05:22:39;25049.06;;;-147.39;68.78
3524;BME280;1776;53.330;11.498;2023-05-23T05:25:06;25016.53;;;-147.39;68.40
3524;BME280;1776;53.330;11.498;2023-05-23T05:27:32;25002.28;;;-147.39;68.77
3524;BME280;1776;53.330;11.498;2023-05-23T05:29:57;24986.00;;;-147.39;69.32
3524;BME280;1776;53.330;11.498;2023-05-23T05:32:27;25036.84;;;-147.39;69.46
3524;BME280;1776;53.330;11.498;2023-05-23T05:34:53;24979.91;;;-147.39;69.33
3524;BME280;1776;53.330;11.498;2023-05-23T05:37:18;24979.91;;;-147.39;69.31
3524;BME280;1776;53.330;11.498;2023-05-23T05:39:43;24983.97;;;-147.39;69.08
3524;BME280;1776;53.330;11.498;2023-05-23T05:42:08;24990.09;;;-147.39;68.79
3524;BME280;1776;53.330;11.498;2023-05-23T05:44:34;24977.88;;;-147.39;68.74
3524;BME280;1776;53.330;11.498;2023-05-23T05:46:59;24992.13;;;-147.39;68.90
3524;BME280;1776;53.330;11.498;2023-05-23T05:49:24;24516.25;;;-147.39;69.00
3524;BME280;1776;53.330;11.498;2023-05-23T05:51:50;24971.78;;;-147.39;68.88
3524;BME280;1776;53.330;11.498;2023-05-23T05:54:15;24963.63;;;-147.39;69.08
3524;BME280;1776;53.330;11.498;2023-05-23T05:56:40;24955.50;;;-147.39;69.02
3524;BME280;1776;53.330;11.498;2023-05-23T05:59:06;24967.72;;;-147.39;68.93
3524;BME280;1776;53.330;11.498;2023-05-23T06:01:31;24994.16;;;-147.39;69.32
3524;BME280;1776;53.330;11.498;2023-05-23T06:03:58;24975.84;;;-147.39;68.74
3524;BME280;1776;53.330;11.498;2023-05-23T06:06:24;24967.72;;;-147.39;69.22
3524;BME280;1776;53.330;11.498;2023-05-23T06:08:49;24941.28;;;-147.39;69.09
3524;BME280;1776;53.330;11.498;2023-05-23T06:11:14;25014.47;;;-147.39;68.40
3524;BME280;1776;53.330;11.498;2023-05-23T06:13:40;25018.56;;;-147.39;68.10
3524;BME280;1776;53.330;11.498;2023-05-23T06:16:05;24994.16;;;-147.39;68.51
3524;BME280;1776;53.330;11.498;2023-05-23T06:18:31;25010.41;;;-147.39;67.98
3524;BME280;1776;53.330;11.498;2023-05-23T06:20:56;25014.47;;;-147.39;68.48
3524;BME280;1776;53.330;11.498;2023-05-23T06:23:21;24971.78;;;-147.39;67.65
3524;BME280;1776;53.330;11.498;2023-05-23T06:25:47;24998.22;;;-147.39;67.75
3524;BME280;1776;53.330;11.498;2023-05-23T06:28:12;25152.78;;;-147.39;67.88
3524;BME280;1776;53.330;11.498;2023-05-23T06:30:37;24900.59;;;-147.39;67.98
3524;BME280;1776;53.330;11.498;2023-05-23T06:33:03;24994.16;;;-147.39;68.24
3524;BME280;1776;53.330;11.498;2023-05-23T06:35:28;24967.72;;;-147.39;68.93
3524;BME280;1776;53.330;11.498;2023-05-23T06:37:53;24955.50;;;-147.39;68.12
3524;BME280;1776;53.330;11.498;2023-05-23T06:40:19;24992.13;;;-147.39;68.38
3524;BME280;1776;53.330;11.498;2023-05-23T06:42:44;24969.75;;;-147.39;68.26
3524;BME280;1776;53.330;11.498;2023-05-23T06:45:09;24947.38;;;-147.39;68.49
3524;BME280;1776;53.330;11.498;2023-05-23T06:47:35;24841.63;;;-147.39;68.90
3524;BME280;1776;53.330;11.498;2023-05-23T06:50:01;25002.28;;;-147.39;69.38
3524;BME280;1776;53.330;11.498;2023-05-23T06:52:26;24556.91;;;-147.39;69.05
3524;BME280;1776;53.330;11.498;2023-05-23T06:54:52;24912.81;;;-147.39;69.29
3524;BME280;1776;53.330;11.498;2023-05-23T06:57:17;24900.59;;;-147.39;70.14
3524;BME280;1776;53.330;11.498;2023-05-23T06:59:42;24890.44;;;-147.39;70.16
3524;BME280;1776;53.330;11.498;2023-05-23T07:02:08;24772.47;;;-147.39;72.79
3524;BME280;1776;53.330;11.498;2023-05-23T07:04:33;24748.06;;;-147.39;72.86
3524;BME280;1776;53.330;11.498;2023-05-23T07:06:58;24741.97;;;-147.39;72.56
3524;BME280;1776;53.330;11.498;2023-05-23T07:09:23;24693.16;;;-147.39;72.26
3524;BME280;1776;53.330;11.498;2023-05-23T07:11:49;24662.66;;;-147.39;72.94
3524;BME280;1776;53.330;11.498;2023-05-23T07:14:14;24597.59;;;-147.39;73.58
3524;BME280;1776;53.330;11.498;2023-05-23T07:16:40;24552.84;;;-147.39;73.84
3524;BME280;1776;53.330;11.498;2023-05-23T07:19:05;24373.91;;;-147.39;76.18
3524;BME280;1776;53.330;11.498;2023-05-23T07:21:30;24304.78;;;-147.39;75.68
3524;BME280;1776;53.330;11.498;2023-05-23T07:23:56;23898.13;;;-147.39;75.23
3524;BME280;1776;53.330;11.498;2023-05-23T07:26:21;24341.38;;;-147.39;74.95
3524;BME280;1776;53.330;11.498;2023-05-23T07:28:46;24306.81;;;-147.39;74.76
3524;BME280;1776;53.330;11.498;2023-05-23T07:31:11;24235.63;;;-147.39;74.50
3524;BME280;1776;53.330;11.498;2023-05-23T07:33:37;24194.97;;;-147.39;75.79
3524;BME280;1776;53.330;11.498;2023-05-23T07:36:03;24048.56;;;-147.39;76.29
3524;BME280;1776;53.330;11.498;2023-05-23T07:38:28;23989.63;;;-147.39;76.60
3524;BME280;1776;53.330;11.498;2023-05-23T07:40:53;24009.94;;;-147.39;76.19
3524;BME280;1776;53.330;11.498;2023-05-23T07:43:18;23916.41;;;-147.39;76.69
3524;BME280;1776;53.330;11.498;2023-05-23T07:45:44;23910.31;;;-147.39;76.27
3524;BME280;1776;53.330;11.498;2023-05-23T07:48:09;23922.50;;;-147.39;76.21
3524;BME280;1776;53.330;11.498;2023-05-23T07:50:36;23859.50;;;-147.39;76.80
3524;BME280;1776;53.330;11.498;2023-05-23T07:53:01;23751.72;;;-147.39;77.36
3524;BME280;1776;53.330;11.498;2023-05-23T07:55:26;23662.28;;;-147.39;77.60
3524;BME280;1776;53.330;11.498;2023-05-23T07:57:51;23558.59;;;-147.39;78.31
3524;BME280;1776;53.330;11.498;2023-05-23T08:00:19;23507.78;;;-147.39;78.41
3524;BME280;1776;53.330;11.498;2023-05-23T08:02:44;23479.31;;;-147.39;78.16
3524;BME280;1776;53.330;11.498;2023-05-23T08:05:09;23454.91;;;-147.39;77.92
3524;BME280;1776;53.330;11.498;2023-05-23T08:07:35;23440.69;;;-147.39;77.49
3524;BME280;1776;53.330;11.498;2023-05-23T08:10:00;23428.47;;;-147.39;77.25
3524;BME280;1776;53.330;11.498;2023-05-23T08:12:25;23446.78;;;-147.39;77.61
3524;BME280;1776;53.330;11.498;2023-05-23T08:14:51;23465.06;;;-147.39;77.26
3524;BME280;1776;53.330;11.498;2023-05-23T08:17:16;23385.78;;;-147.39;77.92
3524;BME280;1776;53.330;11.498;2023-05-23T08:19:41;23345.13;;;-147.39;78.16
3524;BME280;1776;53.330;11.498;2023-05-23T08:22:07;23320.75;;;-147.39;78.10
3524;BME280;1776;53.330;11.498;2023-05-23T08:24:33;23365.47;;;-147.39;78.02
3524;BME280;1776;53.330;11.498;2023-05-23T08:26:58;23363.44;;;-147.39;77.66
3524;BME280;1776;53.330;11.498;2023-05-23T08:29:24;23365.47;;;-147.39;77.51
3524;BME280;1776;53.330;11.498;2023-05-23T08:31:49;23363.44;;;-147.39;77.57
3524;BME280;1776;53.330;11.498;2023-05-23T08:34:14;23363.44;;;-147.39;77.21
3524;BME280;1776;53.330;11.498;2023-05-23T08:36:40;23408.16;;;-147.39;76.96
3524;BME280;1776;53.330;11.498;2023-05-23T08:39:07;23310.56;;;-147.39;76.88
3524;BME280;1776;53.330;11.498;2023-05-23T08:41:33;23400.03;;;-147.39;76.87
3524;BME280;1776;53.330;11.498;2023-05-23T08:43:59;23454.91;;;-147.39;76.86
3524;BME280;1776;53.330;11.498;2023-05-23T08:46:25;23430.53;;;-147.39;76.62
3524;BME280;1776;53.330;11.498;2023-05-23T08:48:53;23381.72;;;-147.39;77.54
3524;BME280;1776;53.330;11.498;2023-05-23T08:51:22;23339.03;;;-147.39;77.86
3524;BME280;1776;53.330;11.498;2023-05-23T08:53:49;23416.28;;;-147.39;77.57
3524;BME280;1776;53.330;11.498;2023-05-23T08:56:15;23330.91;;;-147.39;77.73
3524;BME280;1776;53.330;11.498;2023-05-23T08:58:41;23379.69;;;-147.39;77.26
3524;BME280;1776;53.330;11.498;2023-05-23T09:01:08;23436.63;;;-147.39;76.79
3524;BME280;1776;53.330;11.498;2023-05-23T09:03:34;23381.72;;;-147.39;76.61
3524;BME280;1776;53.330;11.498;2023-05-23T09:06:02;23473.22;;;-147.39;76.33
3524;BME280;1776;53.330;11.498;2023-05-23T09:08:28;23438.66;;;-147.39;76.56
3524;BME280;1776;53.330;11.498;2023-05-23T09:10:54;23422.38;;;-147.39;76.46
3524;BME280;1776;53.330;11.498;2023-05-23T09:13:19;23406.13;;;-147.39;76.98
3524;BME280;1776;53.330;11.498;2023-05-23T09:16:05;23367.50;;;-147.39;77.10
3524;BME280;1776;53.330;11.498;2023-05-23T09:18:41;23444.75;;;-147.39;77.02
3524;BME280;1776;53.330;11.498;2023-05-23T09:21:08;23416.28;;;-147.39;76.80
3524;BME280;1776;53.330;11.498;2023-05-23T09:23:34;23475.25;;;-147.39;76.75
3524;BME280;1776;53.330;11.498;2023-05-23T09:26:07;23450.84;;;-147.39;76.75
3524;BME280;1776;53.330;11.498;2023-05-23T09:28:35;23536.22;;;-147.39;76.52
3524;BME280;1776;53.330;11.498;2023-05-23T09:31:05;23491.50;;;-147.39;76.13
3524;BME280;1776;53.330;11.498;2023-05-23T09:33:47;23511.84;;;-147.39;76.24
3524;BME280;1776;53.330;11.498;2023-05-23T09:36:13;23560.63;;;-147.39;75.85
3524;BME280;1776;53.330;11.498;2023-05-23T09:38:40;23572.81;;;-147.39;75.46
3524;BME280;1776;53.330;11.498;2023-05-23T09:41:06;23668.38;;;-147.39;75.16
3524;BME280;1776;53.330;11.498;2023-05-23T09:43:31;23621.63;;;-147.39;75.14
3524;BME280;1776;53.330;11.498;2023-05-23T09:46:06;23727.34;;;-147.39;74.57
3524;BME280;1776;53.330;11.498;2023-05-23T09:48:32;23668.38;;;-147.39;75.03
3524;BME280;1776;53.330;11.498;2023-05-23T09:50:58;23625.69;;;-147.39;75.20
3524;BME280;1776;53.330;11.498;2023-05-23T09:53:23;23650.09;;;-147.39;75.25
3524;BME280;1776;53.330;11.498;2023-05-23T09:55:53;23709.03;;;-147.39;74.74
3524;BME280;1776;53.330;11.498;2023-05-23T09:58:22;23715.13;;;-147.39;75.20
3524;BME280;1776;53.330;11.498;2023-05-23T10:00:49;23674.47;;;-147.39;75.56
3524;BME280;1776;53.330;11.498;2023-05-23T10:03:21;23668.38;;;-147.39;75.55
3524;BME280;1776;53.330;11.498;2023-05-23T10:05:49;23696.84;;;-147.39;74.99
3524;BME280;1776;53.330;11.498;2023-05-23T10:08:31;23749.69;;;-147.39;74.93
3524;BME280;1776;53.330;11.498;2023-05-23T10:13:46;23751.72;;;-147.39;74.64
3524;BME280;1776;53.330;11.498;2023-05-23T10:16:48;23871.69;;;-147.39;74.57
3524;BME280;1776;53.330;11.498;2023-05-23T10:19:23;23790.38;;;-147.39;75.10
3524;BME280;1776;53.330;11.498;2023-05-23T10:22:00;23765.97;;;-147.39;75.11
3524;BME280;1776;53.330;11.498;2023-05-23T10:24:26;23774.09;;;-147.39;75.40
3524;BME280;1776;53.330;11.498;2023-05-23T10:26:52;23759.88;;;-147.39;75.20
3524;BME280;1776;53.330;11.498;2023-05-23T10:29:22;23816.78;;;-147.39;74.99
3524;BME280;1776;53.330;11.498;2023-05-23T10:31:49;23725.31;;;-147.39;75.50
3524;BME280;1776;53.330;11.498;2023-05-23T10:34:56;23770.03;;;-147.39;75.39
3524;BME280;1776;53.330;11.498;2023-05-23T10:37:26;23845.25;;;-147.39;73.84
3524;BME280;1776;53.330;11.498;2023-05-23T10:40:09;23826.97;;;-147.39;72.68
3524;BME280;1776;53.330;11.498;2023-05-23T10:42:44;23898.13;;;-147.39;71.73
3524;BME280;1776;53.330;11.498;2023-05-23T10:47:40;23967.25;;;-147.39;70.61
3524;BME280;1776;53.330;11.498;2023-05-23T10:50:06;24005.88;;;-147.39;69.96
3524;BME280;1776;53.330;11.498;2023-05-23T10:52:38;24036.38;;;-147.39;69.76
3524;BME280;1776;53.330;11.498;2023-05-23T10:55:12;24068.91;;;-147.39;69.45
3524;BME280;1776;53.330;11.498;2023-05-23T10:57:38;24111.59;;;-147.39;69.06
3524;BME280;1776;53.330;11.498;2023-05-23T11:00:04;24117.72;;;-147.39;68.87
3524;BME280;1776;53.330;11.498;2023-05-23T11:02:29;24007.91;;;-147.39;68.46
3524;BME280;1776;53.330;11.498;2023-05-23T11:05:20;24239.72;;;-147.39;67.90
3524;BME280;1776;53.330;11.498;2023-05-23T11:08:05;24213.28;;;-147.39;67.57
3524;BME280;1776;53.330;11.498;2023-05-23T11:10:30;24286.47;;;-147.39;67.25
3524;BME280;1776;53.330;11.498;2023-05-23T11:13:05;24270.22;;;-147.39;67.21
3524;BME280;1776;53.330;11.498;2023-05-23T11:15:40;24375.94;;;-147.39;67.06
3524;BME280;1776;53.330;11.498;2023-05-23T11:18:06;24286.47;;;-147.39;66.80
3524;BME280;1776;53.330;11.498;2023-05-23T11:20:32;24323.06;;;-147.39;67.39
3524;BME280;1776;53.330;11.498;2023-05-23T11:23:05;24294.59;;;-147.39;67.71
3524;BME280;1776;53.330;11.498;2023-05-23T11:25:42;24280.38;;;-147.39;68.30
3524;BME280;1776;53.330;11.498;2023-05-23T11:28:09;24249.88;;;-147.39;68.43
3524;BME280;1776;53.330;11.498;2023-05-23T11:30:35;24288.50;;;-147.39;68.07
3524;BME280;1776;53.330;11.498;2023-05-23T11:33:08;24296.63;;;-147.39;67.68
3524;BME280;1776;53.330;11.498;2023-05-23T11:35:36;24329.16;;;-147.39;67.12
3524;BME280;1776;53.330;11.498;2023-05-23T11:38:03;24445.06;;;-147.39;66.85
3524;BME280;1776;53.330;11.498;2023-05-23T11:40:38;24382.03;;;-147.39;66.33
3524;BME280;1776;53.330;11.498;2023-05-23T11:43:06;24373.91;;;-147.39;65.63
3524;BME280;1776;53.330;11.498;2023-05-23T11:45:33;24371.88;;;-147.39;65.53
3524;BME280;1776;53.330;11.498;2023-05-23T11:48:07;24441.00;;;-147.39;64.96
3524;BME280;1776;53.330;11.498;2023-05-23T11:50:33;24443.03;;;-147.39;64.07
3524;BME280;1776;53.330;11.498;2023-05-23T11:52:59;24508.13;;;-147.39;63.97
3524;BME280;1776;53.330;11.498;2023-05-23T11:55:24;24339.34;;;-147.39;64.73
3524;BME280;1776;53.330;11.498;2023-05-23T11:57:50;24455.25;;;-147.39;64.45
3524;BME280;1776;53.330;11.498;2023-05-23T12:00:16;24495.91;;;-147.39;63.03
3524;BME280;1776;53.330;11.498;2023-05-23T12:02:44;24475.59;;;-147.39;62.70
3524;BME280;1776;53.330;11.498;2023-05-23T12:05:11;24499.97;;;-147.39;62.59
3524;BME280;1776;53.330;11.498;2023-05-23T12:07:47;24436.94;;;-147.39;61.98
3524;BME280;1776;53.330;11.498;2023-05-23T12:10:14;24585.38;;;-147.39;61.88
3524;BME280;1776;53.330;11.498;2023-05-23T12:12:46;24634.19;;;-147.39;61.28
3524;BME280;1776;53.330;11.498;2023-05-23T12:15:12;24603.69;;;-147.39;62.15
3524;BME280;1776;53.330;11.498;2023-05-23T12:17:38;24693.16;;;-147.39;62.29
3524;BME280;1776;53.330;11.498;2023-05-23T12:20:04;24591.50;;;-147.39;62.94
3524;BME280;1776;53.330;11.498;2023-05-23T12:22:30;24534.56;;;-147.39;63.48
3524;BME280;1776;53.330;11.498;2023-05-23T12:24:55;24563.03;;;-147.39;64.61
3524;BME280;1776;53.330;11.498;2023-05-23T12:27:33;24471.50;;;-147.39;65.68
3524;BME280;1776;53.330;11.498;2023-05-23T12:30:13;24459.31;;;-147.39;66.53
3524;BME280;1776;53.330;11.498;2023-05-23T12:32:40;24441.00;;;-147.39;67.68
3524;BME280;1776;53.330;11.498;2023-05-23T12:35:07;24373.91;;;-147.39;67.77
3524;BME280;1776;53.330;11.498;2023-05-23T12:37:32;24414.56;;;-147.39;68.34
3524;BME280;1776;53.330;11.498;2023-05-23T12:40:14;24300.72;;;-147.39;69.36
3524;BME280;1776;53.330;11.498;2023-05-23T12:42:53;24298.66;;;-147.39;69.95
3524;BME280;1776;53.330;11.498;2023-05-23T12:45:20;24302.75;;;-147.39;70.04
3524;BME280;1776;53.330;11.498;2023-05-23T12:47:46;24288.50;;;-147.39;70.71
3524;BME280;1776;53.330;11.498;2023-05-23T12:50:11;24194.97;;;-147.39;71.82
3524;BME280;1776;53.330;11.498;2023-05-23T12:52:37;24170.56;;;-147.39;72.66
3524;BME280;1776;53.330;11.498;2023-05-23T12:55:04;24113.63;;;-147.39;73.12
3524;BME280;1776;53.330;11.498;2023-05-23T12:57:31;24018.06;;;-147.39;73.94
3524;BME280;1776;53.330;11.498;2023-05-23T12:59:57;24052.63;;;-147.39;73.89